createdAt,value
2022-12-22T00:01:37.766Z,98173.59
2022-12-22T00:04:27.856Z,98163.72
2022-12-22T00:07:13.248Z,98160.47
2022-12-22T00:09:58.837Z,98159.19
2022-12-22T00:12:45.827Z,98154.66
2022-12-22T00:15:35.707Z,98160.38
2022-12-22T00:18:24.479Z,98167.09
2022-12-22T00:21:09.786Z,98163.75
2022-12-22T00:23:55.716Z,98160.59
2022-12-22T00:26:44.130Z,98158.41
2022-12-22T00:29:33.964Z,98157.69
2022-12-22T00:32:20.861Z,98156.66
2022-12-22T00:35:07.214Z,98149.69
2022-12-22T00:37:55.541Z,98165.25
2022-12-22T00:40:48.972Z,98161.28
2022-12-22T00:43:34.487Z,98139.00
2022-12-22T00:46:22.518Z,98118.00
2022-12-22T00:49:09.380Z,98136.69
2022-12-22T00:51:55.298Z,98135.63
2022-12-22T00:54:42.105Z,98137.84
2022-12-22T00:57:38.531Z,98133.88
2022-12-22T01:00:25.515Z,98140.03
2022-12-22T01:03:11.200Z,98122.38
2022-12-22T01:05:57.165Z,98131.09
2022-12-22T01:08:42.753Z,98119.25
2022-12-22T01:11:29.859Z,98123.91
2022-12-22T01:14:16.172Z,98107.50
2022-12-22T01:17:02.134Z,98115.91
2022-12-22T01:19:47.836Z,98121.47
2022-12-22T01:22:39.617Z,98123.44
2022-12-22T01:25:35.723Z,98111.94
2022-12-22T01:28:22.551Z,98114.28
2022-12-22T01:31:08.789Z,98110.19
2022-12-22T01:33:54.297Z,98113.22
2022-12-22T01:36:39.676Z,98078.38
2022-12-22T01:39:25.130Z,98100.69
2022-12-22T01:42:10.462Z,98099.28
2022-12-22T01:44:56.078Z,98095.66
2022-12-22T01:47:47.418Z,98087.19
2022-12-22T01:50:39.952Z,98090.09
2022-12-22T01:53:29.617Z,98083.13
2022-12-22T01:56:16.681Z,98078.59
2022-12-22T01:59:05.671Z,98098.81
2022-12-22T02:01:51.749Z,98087.09
2022-12-22T02:04:40.642Z,98081.97
2022-12-22T02:07:38.132Z,98076.97
2022-12-22T02:10:32.790Z,98088.81
2022-12-22T02:13:38.436Z,98085.91
2022-12-22T02:17:10.223Z,98082.66
2022-12-22T02:20:13.876Z,98086.94
2022-12-22T02:23:15.428Z,98075.69
2022-12-22T02:26:36.335Z,98082.31
2022-12-22T02:29:25.537Z,98071.78
2022-12-22T02:32:11.539Z,98088.13
2022-12-22T02:34:57.983Z,98086.63
2022-12-22T02:37:49.680Z,98079.66
2022-12-22T02:40:50.496Z,98084.19
2022-12-22T02:44:14.179Z,98079.41
2022-12-22T02:47:13.703Z,98089.28
2022-12-22T02:50:10.428Z,98086.84
2022-12-22T02:52:57.542Z,98088.72
2022-12-22T02:55:43.736Z,98083.13
2022-12-22T02:58:32.812Z,98082.56
2022-12-22T03:01:20.413Z,98078.72
2022-12-22T03:04:06.795Z,98087.81
2022-12-22T03:06:52.773Z,98088.94
2022-12-22T03:09:38.440Z,98082.22
2022-12-22T03:12:23.847Z,98074.66
2022-12-22T03:15:09.476Z,98067.69
2022-12-22T03:17:54.886Z,98077.94
2022-12-22T03:20:40.223Z,98075.81
2022-12-22T03:23:27.803Z,98068.50
2022-12-22T03:26:23.302Z,98081.03
2022-12-22T03:28:50.438Z,98072.69
2022-12-22T03:31:17.494Z,98072.34
2022-12-22T03:33:44.504Z,98074.31
2022-12-22T03:36:11.567Z,98059.81
2022-12-22T03:38:38.817Z,98061.91
2022-12-22T03:41:05.985Z,98066.75
2022-12-22T03:43:51.704Z,98068.25
2022-12-22T03:46:32.120Z,98054.56
2022-12-22T03:49:10.626Z,98065.50
2022-12-22T03:51:42.094Z,98098.13
2022-12-22T03:54:10.749Z,98082.09
2022-12-22T03:56:38.442Z,98071.63
2022-12-22T03:59:06.193Z,98065.97
2022-12-22T04:01:34.741Z,98066.88
2022-12-22T04:04:01.853Z,98055.28
2022-12-22T04:06:28.900Z,98072.78
2022-12-22T04:08:55.969Z,98056.75
2022-12-22T04:11:42.153Z,98065.16
2022-12-22T04:14:09.174Z,98063.28
2022-12-22T04:16:36.443Z,98039.50
2022-12-22T04:19:03.568Z,98068.72
2022-12-22T04:21:30.583Z,98056.19
2022-12-22T04:23:59.085Z,98057.81
2022-12-22T04:26:27.246Z,98061.66
2022-12-22T04:28:55.318Z,98061.44
2022-12-22T04:31:23.535Z,98069.91
2022-12-22T04:33:50.784Z,98056.56
2022-12-22T04:36:18.675Z,98057.84
2022-12-22T04:38:45.947Z,98069.09
2022-12-22T04:41:13.348Z,98059.91
2022-12-22T04:43:40.531Z,98064.44
2022-12-22T04:46:07.897Z,98056.91
2022-12-22T04:48:35.287Z,98072.09
2022-12-22T04:51:02.878Z,98061.19
2022-12-22T04:53:31.902Z,98060.84
2022-12-22T04:56:07.123Z,98062.22
2022-12-22T04:58:34.467Z,98078.84
2022-12-22T05:01:17.892Z,98085.31
2022-12-22T05:03:46.057Z,98061.28
2022-12-22T05:06:14.036Z,98066.53
2022-12-22T05:08:41.681Z,98077.56
2022-12-22T05:11:09.946Z,98075.44
2022-12-22T05:13:37.435Z,98065.72
2022-12-22T05:16:13.778Z,98066.63
2022-12-22T05:18:42.392Z,98094.63
2022-12-22T05:21:18.615Z,98105.75
2022-12-22T05:23:46.307Z,98090.09
2022-12-22T05:26:14.863Z,98104.94
2022-12-22T05:28:44.281Z,98070.50
2022-12-22T05:31:17.270Z,98082.66
2022-12-22T05:33:45.049Z,98097.97
2022-12-22T05:36:12.340Z,98103.94
2022-12-22T05:38:40.453Z,98105.59
2022-12-22T05:41:08.374Z,98117.00
2022-12-22T05:43:36.112Z,98109.56
2022-12-22T05:46:09.399Z,98114.09
2022-12-22T05:48:38.958Z,98107.94
2022-12-22T05:51:10.940Z,98117.91
2022-12-22T05:53:38.404Z,98134.75
2022-12-22T05:56:06.215Z,98096.25
2022-12-22T05:58:34.991Z,98116.28
2022-12-22T06:01:02.451Z,98116.19
2022-12-22T06:03:30.742Z,98147.53
2022-12-22T06:06:12.124Z,98126.28
2022-12-22T06:08:39.107Z,98139.63
2022-12-22T06:11:06.164Z,98112.00
2022-12-22T06:13:33.278Z,98121.75
2022-12-22T06:16:00.408Z,98113.63
2022-12-22T06:18:30.387Z,98117.69
2022-12-22T06:20:57.462Z,98129.53
2022-12-22T06:23:24.466Z,98128.94
2022-12-22T06:25:56.613Z,98123.59
2022-12-22T06:28:24.003Z,98144.63
2022-12-22T06:30:51.074Z,98125.69
2022-12-22T06:33:18.332Z,98120.94
2022-12-22T06:35:45.501Z,98118.72
2022-12-22T06:38:12.925Z,98113.63
2022-12-22T06:40:39.919Z,98113.97
2022-12-22T06:43:10.671Z,98121.53
2022-12-22T06:45:41.018Z,98132.22
2022-12-22T06:48:09.792Z,98137.78
2022-12-22T06:50:37.139Z,98115.59
2022-12-22T06:53:05.365Z,98117.34
2022-12-22T06:55:32.563Z,98123.97
2022-12-22T06:58:01.635Z,98122.44
2022-12-22T07:00:29.280Z,98129.66
2022-12-22T07:02:56.542Z,98119.78
2022-12-22T07:05:24.681Z,98147.88
2022-12-22T07:07:52.744Z,98125.34
2022-12-22T07:10:40.082Z,98116.03
2022-12-22T07:13:19.448Z,98131.38
2022-12-22T07:15:57.583Z,98124.16
2022-12-22T07:18:28.690Z,98129.75
2022-12-22T07:20:57.663Z,98128.69
2022-12-22T07:23:26.309Z,98124.25
2022-12-22T07:25:56.537Z,98134.72
2022-12-22T07:28:23.860Z,98132.28
2022-12-22T07:30:52.063Z,98129.69
2022-12-22T07:33:19.471Z,98119.97
2022-12-22T07:35:46.854Z,98128.66
2022-12-22T07:38:14.043Z,98128.75
2022-12-22T07:40:42.495Z,98128.31
2022-12-22T07:43:10.701Z,98144.22
2022-12-22T07:45:38.381Z,98138.06
2022-12-22T07:48:25.663Z,98130.41
2022-12-22T07:51:03.403Z,98141.09
2022-12-22T07:53:30.416Z,98142.91
2022-12-22T07:55:57.559Z,98141.41
2022-12-22T07:58:25.586Z,98135.25
2022-12-22T08:01:01.593Z,98138.75
2022-12-22T08:03:28.861Z,98143.53
2022-12-22T08:05:55.954Z,98146.53
2022-12-22T08:08:22.991Z,98152.44
2022-12-22T08:10:50.050Z,98155.13
2022-12-22T08:13:20.156Z,98163.38
2022-12-22T08:15:47.373Z,98142.22
2022-12-22T08:18:14.411Z,98144.44
2022-12-22T08:20:59.459Z,98140.13
2022-12-22T08:23:27.532Z,98143.03
2022-12-22T08:26:12.535Z,98144.75
2022-12-22T08:28:50.125Z,98137.69
2022-12-22T08:31:18.761Z,98147.91
2022-12-22T08:33:46.219Z,98142.56
2022-12-22T08:36:14.200Z,98140.69
2022-12-22T08:38:42.543Z,98148.47
2022-12-22T08:41:16.489Z,98146.84
2022-12-22T08:43:43.463Z,98130.81
2022-12-22T08:46:11.908Z,98130.75
2022-12-22T08:48:39.100Z,98142.59
2022-12-22T08:51:06.360Z,98143.66
2022-12-22T08:56:20.252Z,98144.47
2022-12-22T08:58:50.747Z,98143.41
2022-12-22T09:01:22.497Z,98149.31
2022-12-22T09:03:54.253Z,98130.84
2022-12-22T09:06:27.212Z,98146.88
2022-12-22T09:08:55.920Z,98139.22
2022-12-22T09:11:23.839Z,98149.31
2022-12-22T09:13:53.255Z,98156.53
2022-12-22T09:16:21.531Z,98157.94
2022-12-22T09:18:49.540Z,98164.56
2022-12-22T09:21:19.746Z,98121.03
2022-12-22T09:23:46.929Z,98166.19
2022-12-22T09:26:17.889Z,98145.75
2022-12-22T09:28:50.081Z,98154.78
2022-12-22T09:31:19.470Z,98150.94
2022-12-22T09:33:46.778Z,98155.59
2022-12-22T09:36:18.016Z,98159.91
2022-12-22T09:38:46.020Z,98157.94
2022-12-22T09:41:35.059Z,98167.94
2022-12-22T09:44:13.567Z,98166.78
2022-12-22T09:46:41.066Z,98171.53
2022-12-22T09:49:08.519Z,98167.59
2022-12-22T09:51:43.042Z,98146.88
2022-12-22T09:54:16.300Z,98165.50
2022-12-22T09:56:43.390Z,98152.25
2022-12-22T09:59:19.629Z,98167.84
2022-12-22T10:02:00.929Z,98149.72
2022-12-22T10:04:46.788Z,98153.19
2022-12-22T10:07:42.611Z,98179.59
2022-12-22T10:10:28.366Z,98165.09
2022-12-22T10:12:57.389Z,98166.63
2022-12-22T10:15:25.086Z,98156.06
2022-12-22T10:17:54.583Z,98170.50
2022-12-22T10:20:26.855Z,98147.44
2022-12-22T10:22:53.930Z,98145.63
2022-12-22T10:26:27.616Z,98139.78
2022-12-22T10:28:53.623Z,98122.41
2022-12-22T10:31:24.328Z,98140.94
2022-12-22T10:33:54.455Z,98135.13
2022-12-22T10:36:32.285Z,98136.31
2022-12-22T10:39:09.731Z,98142.66
2022-12-22T10:41:48.864Z,98137.53
2022-12-22T10:44:15.895Z,98141.38
2022-12-22T10:46:46.381Z,98143.22
2022-12-22T10:49:17.315Z,98133.59
2022-12-22T10:51:47.575Z,98137.78
2022-12-22T10:54:29.663Z,98132.63
2022-12-22T10:57:22.787Z,98132.13
2022-12-22T10:59:51.187Z,98141.66
2022-12-22T11:02:21.488Z,98136.31
2022-12-22T11:04:50.120Z,98140.03
2022-12-22T11:07:20.885Z,98149.13
2022-12-22T11:09:48.113Z,98158.75
2022-12-22T11:12:36.767Z,98155.47
2022-12-22T11:15:28.594Z,98163.75
2022-12-22T11:18:22.008Z,98172.34
2022-12-22T11:21:24.379Z,98163.31
2022-12-22T11:24:22.835Z,98171.31
2022-12-22T11:26:53.003Z,98169.09
2022-12-22T11:29:52.151Z,98150.53
2022-12-22T11:32:37.755Z,98168.28
2022-12-22T11:35:27.524Z,98156.34
2022-12-22T11:37:56.588Z,98163.81
2022-12-22T11:41:02.673Z,98163.22
2022-12-22T11:43:44.273Z,98161.03
2022-12-22T11:46:23.531Z,98180.22
2022-12-22T11:49:16.610Z,98168.50
2022-12-22T11:52:05.648Z,98186.53
2022-12-22T11:54:57.959Z,98177.81
2022-12-22T11:57:27.998Z,98182.34
2022-12-22T12:00:15.987Z,98199.19
2022-12-22T12:03:12.529Z,98184.53
2022-12-22T12:05:52.328Z,98211.25
2022-12-22T12:08:47.267Z,98201.06
2022-12-22T12:11:26.576Z,98204.06
2022-12-22T12:14:19.258Z,98218.00
2022-12-22T12:17:01.528Z,98211.03
2022-12-22T12:19:36.992Z,98208.03
2022-12-22T12:22:16.272Z,98212.94
2022-12-22T12:24:57.651Z,98210.38
2022-12-22T12:27:59.613Z,98208.75
2022-12-22T12:30:39.733Z,98216.56
2022-12-22T12:33:19.733Z,98210.72
2022-12-22T12:35:57.500Z,98209.34
2022-12-22T12:41:50.143Z,98206.31
2022-12-22T12:44:21.314Z,98194.34
2022-12-22T12:46:51.919Z,98204.56
2022-12-22T12:49:51.102Z,98209.91
2022-12-22T12:52:18.040Z,98209.00
2022-12-22T12:54:47.713Z,98213.63
2022-12-22T12:57:29.967Z,98204.47
2022-12-22T12:59:59.434Z,98218.53
2022-12-22T13:02:55.514Z,98212.97
2022-12-22T13:05:33.278Z,98201.81
2022-12-22T13:08:20.547Z,98204.00
2022-12-22T13:10:50.394Z,98214.94
2022-12-22T13:13:23.668Z,98216.78
2022-12-22T13:16:03.054Z,98216.56
2022-12-22T13:18:33.452Z,98221.31
2022-12-22T13:21:50.881Z,98208.53
2022-12-22T13:24:30.171Z,98216.56
2022-12-22T13:27:07.194Z,98209.56
2022-12-22T13:29:44.524Z,98225.03
2022-12-22T13:32:24.124Z,98214.81
2022-12-22T13:37:49.749Z,98221.22
2022-12-22T13:40:20.673Z,98242.13
2022-12-22T13:42:47.692Z,98233.28
2022-12-22T13:45:26.687Z,98234.34
2022-12-22T13:47:53.905Z,98235.38
2022-12-22T13:50:29.214Z,98225.13
2022-12-22T13:52:58.335Z,98246.75
2022-12-22T13:55:28.439Z,98246.16
2022-12-22T13:57:58.959Z,98248.84
2022-12-22T14:00:29.041Z,98268.13
2022-12-22T14:03:02.269Z,98248.03
2022-12-22T14:05:32.077Z,98248.84
2022-12-22T14:08:06.119Z,98247.22
2022-12-22T14:10:37.763Z,98245.72
2022-12-22T14:13:15.905Z,98248.03
2022-12-22T14:15:45.094Z,98265.69
2022-12-22T14:18:17.137Z,98251.97
2022-12-22T14:20:47.268Z,98249.88
2022-12-22T14:23:32.800Z,98237.00
2022-12-22T14:26:03.784Z,98231.88
2022-12-22T14:28:34.629Z,98241.88
2022-12-22T14:31:04.162Z,98235.00
2022-12-22T14:33:33.642Z,98239.91
2022-12-22T14:36:27.087Z,98253.50
2022-12-22T14:39:05.467Z,98226.75
2022-12-22T14:41:43.730Z,98235.94
2022-12-22T14:44:24.760Z,98246.75
2022-12-22T14:47:12.104Z,98247.22
2022-12-22T14:49:56.164Z,98272.00
2022-12-22T14:52:45.208Z,98261.38
2022-12-22T14:55:36.549Z,98282.06
2022-12-22T14:58:18.491Z,98286.00
2022-12-22T15:00:47.794Z,98278.13
2022-12-22T15:03:35.026Z,98292.88
2022-12-22T15:06:27.009Z,98278.34
2022-12-22T15:09:09.068Z,98269.75
2022-12-22T15:11:39.207Z,98284.88
2022-12-22T15:14:11.824Z,98279.53
2022-12-22T16:06:46.938Z,98308.00
2022-12-22T16:09:22.337Z,98311.81
2022-12-22T16:11:49.889Z,98313.47
2022-12-22T16:14:21.040Z,98298.94
2022-12-22T16:16:48.557Z,98312.06
2022-12-22T16:19:17.695Z,98300.31
2022-12-22T16:21:50.239Z,98307.06
2022-12-22T16:24:38.786Z,98294.84
2022-12-22T16:27:06.915Z,98289.41
2022-12-22T16:29:34.180Z,98286.25
2022-12-22T16:32:19.993Z,98283.44
2022-12-22T16:34:47.388Z,98282.16
2022-12-22T16:37:14.859Z,98277.88
2022-12-22T16:39:42.147Z,98290.91
2022-12-22T16:45:06.352Z,98296.03
2022-12-22T16:47:36.589Z,98300.19
2022-12-22T16:50:17.519Z,98299.38
2022-12-22T16:52:45.216Z,98300.75
2022-12-22T16:55:22.552Z,98294.84
2022-12-22T16:57:52.482Z,98281.94
2022-12-22T17:00:25.657Z,98277.41
2022-12-22T17:03:25.526Z,98270.78
2022-12-22T17:05:58.831Z,98273.53
2022-12-22T17:08:32.035Z,98288.88
2022-12-22T17:11:09.816Z,98292.84
2022-12-22T17:13:41.750Z,98306.22
2022-12-22T17:16:43.151Z,98305.88
2022-12-22T17:23:02.502Z,98322.38
2022-12-22T17:25:31.306Z,98304.72
2022-12-22T17:28:05.116Z,98299.72
2022-12-22T17:30:32.915Z,98305.63
2022-12-22T17:33:00.646Z,98296.34
2022-12-22T17:35:29.537Z,98312.38
2022-12-22T17:37:57.019Z,98333.44
2022-12-22T17:40:32.709Z,98306.59
2022-12-22T17:43:04.246Z,98303.53
2022-12-22T17:45:31.626Z,98290.41
2022-12-22T17:48:02.413Z,98305.16
2022-12-22T17:50:33.223Z,98301.47
2022-12-22T17:53:01.640Z,98307.50
2022-12-22T17:58:18.548Z,98301.69
2022-12-22T18:00:48.125Z,98309.69
2022-12-22T18:03:17.758Z,98309.34
2022-12-22T18:05:48.185Z,98337.72
2022-12-22T18:08:21.401Z,98314.72
2022-12-22T18:10:50.753Z,98323.44
2022-12-22T18:13:26.117Z,98319.25
2022-12-22T18:15:56.156Z,98319.38
2022-12-22T18:18:24.260Z,98294.88
2022-12-22T18:21:07.580Z,98313.44
2022-12-22T18:23:37.064Z,98295.31
2022-12-22T18:26:10.727Z,98301.47
2022-12-22T18:28:40.394Z,98294.16
2022-12-22T18:31:20.666Z,98300.06
2022-12-22T18:33:52.507Z,98294.38
2022-12-22T18:39:55.969Z,98320.06
2022-12-22T18:45:14.876Z,98303.66
2022-12-22T18:47:42.267Z,98317.50
2022-12-22T18:50:30.392Z,98313.66
2022-12-22T18:53:02.943Z,98324.59
2022-12-22T18:55:33.049Z,98323.19
2022-12-22T18:58:00.665Z,98319.59
2022-12-22T19:00:31.127Z,98312.28
2022-12-22T19:03:02.275Z,98320.63
2022-12-22T19:05:32.969Z,98331.56
2022-12-22T19:08:00.711Z,98310.41
2022-12-22T19:10:38.065Z,98306.06
2022-12-22T19:13:08.434Z,98300.06
2022-12-22T19:15:40.797Z,98284.28
2022-12-22T19:18:14.819Z,98287.66
2022-12-22T19:20:45.067Z,98315.53
2022-12-22T19:23:18.411Z,98302.38
2022-12-22T19:25:50.858Z,98307.41
2022-12-22T19:28:23.859Z,98323.41
2022-12-22T19:31:20.728Z,98323.78
2022-12-22T19:33:49.823Z,98333.56
2022-12-22T19:36:22.412Z,98327.38
2022-12-22T19:38:51.150Z,98339.97
2022-12-22T19:41:44.548Z,98344.47
2022-12-22T19:44:27.028Z,98344.94
2022-12-22T19:46:56.123Z,98326.94
2022-12-22T19:49:25.429Z,98342.84
2022-12-22T19:51:52.631Z,98347.63
2022-12-22T19:54:19.910Z,98346.22
2022-12-22T19:56:51.103Z,98354.81
2022-12-22T19:59:37.251Z,98337.63
2022-12-22T20:02:33.741Z,98338.19
2022-12-22T20:05:01.131Z,98339.13
2022-12-22T20:07:30.801Z,98352.03
2022-12-22T20:09:57.862Z,98360.06
2022-12-22T20:12:33.405Z,98347.28
2022-12-22T20:15:01.970Z,98346.47
2022-12-22T20:17:30.218Z,98341.69
2022-12-22T20:19:57.394Z,98330.41
2022-12-22T20:22:24.924Z,98344.03
2022-12-22T20:24:54.709Z,98305.19
2022-12-22T20:27:25.881Z,98327.75
2022-12-22T20:29:53.015Z,98330.19
2022-12-22T20:32:27.314Z,98332.16
2022-12-22T20:34:54.943Z,98322.97
2022-12-22T20:37:22.491Z,98303.91
2022-12-22T20:39:59.727Z,98312.75
2022-12-22T20:42:27.274Z,98332.63
2022-12-22T20:45:04.108Z,98320.19
2022-12-22T20:47:34.235Z,98326.44
2022-12-22T20:50:01.343Z,98302.97
2022-12-22T20:52:29.696Z,98309.34
2022-12-22T20:54:56.792Z,98314.94
2022-12-22T20:57:24.900Z,98305.06
2022-12-22T20:59:56.182Z,98309.34
2022-12-22T21:02:28.408Z,98284.00
2022-12-22T21:04:56.122Z,98289.69
2022-12-22T21:07:23.261Z,98264.56
2022-12-22T21:09:50.338Z,98269.09
2022-12-22T21:12:17.429Z,98265.28
2022-12-22T21:14:44.937Z,98275.75
2022-12-22T21:17:21.225Z,98263.09
2022-12-22T21:19:48.495Z,98241.72
2022-12-22T21:22:15.989Z,98267.84
2022-12-22T21:24:44.049Z,98288.44
2022-12-22T21:27:18.737Z,98277.41
2022-12-22T21:29:46.366Z,98294.16
2022-12-22T21:32:16.399Z,98306.81
2022-12-22T21:34:43.732Z,98296.34
2022-12-22T21:37:17.637Z,98300.06
2022-12-22T21:39:45.072Z,98284.50
2022-12-22T21:42:20.005Z,98287.88
2022-12-22T21:44:47.293Z,98308.56
2022-12-22T21:47:17.666Z,98317.97
2022-12-22T21:49:44.672Z,98330.75
2022-12-22T21:52:11.631Z,98320.06
2022-12-22T21:54:38.732Z,98317.16
2022-12-22T21:57:12.818Z,98301.72
2022-12-22T21:59:39.942Z,98315.66
2022-12-22T22:02:15.840Z,98315.06
2022-12-22T22:04:46.735Z,98309.84
2022-12-22T22:07:18.983Z,98310.91
2022-12-22T22:09:46.018Z,98310.75
2022-12-22T22:12:31.784Z,98337.41
2022-12-22T22:15:00.577Z,98309.28
2022-12-22T22:17:27.592Z,98315.78
2022-12-22T22:19:54.596Z,98324.03
2022-12-22T22:22:21.679Z,98334.03
2022-12-22T22:24:48.810Z,98331.47
2022-12-22T22:27:16.013Z,98326.13
2022-12-22T22:29:43.104Z,98327.41
2022-12-22T22:32:10.132Z,98331.25
2022-12-22T22:34:37.489Z,98321.84
2022-12-22T22:37:04.455Z,98325.66
2022-12-22T22:39:31.593Z,98328.91
2022-12-22T22:41:58.885Z,98323.81
2022-12-22T22:44:25.925Z,98312.06
2022-12-22T22:46:53.140Z,98311.59
2022-12-22T22:49:24.382Z,98322.28
2022-12-22T22:51:53.376Z,98310.19
2022-12-22T22:54:20.572Z,98306.59
2022-12-22T22:56:48.038Z,98312.50
2022-12-22T22:59:15.319Z,98297.50
2022-12-22T23:01:42.360Z,98305.06
2022-12-22T23:04:09.701Z,98309.94
2022-12-22T23:06:36.898Z,98308.06
2022-12-22T23:09:04.192Z,98299.25
2022-12-22T23:11:31.240Z,98333.53
2022-12-22T23:14:24.968Z,98297.28
2022-12-22T23:16:52.111Z,98306.78
2022-12-22T23:19:19.515Z,98293.19
2022-12-22T23:21:46.604Z,98284.34
2022-12-22T23:24:13.733Z,98281.19
2022-12-22T23:26:41.303Z,98277.38
2022-12-22T23:29:08.377Z,98274.81
2022-12-22T23:31:36.381Z,98268.28
2022-12-22T23:34:04.368Z,98271.09
2022-12-22T23:36:32.337Z,98269.00
2022-12-22T23:39:02.034Z,98263.53
2022-12-22T23:41:29.385Z,98269.25
2022-12-22T23:43:56.483Z,98267.63
2022-12-22T23:46:23.684Z,98272.16
2022-12-22T23:48:53.020Z,98267.25
2022-12-22T23:51:21.289Z,98266.66
2022-12-22T23:53:48.273Z,98264.81
2022-12-22T23:56:16.300Z,98260.19
2022-12-22T23:58:43.437Z,98260.50
